sensor_id;sensor_type;location;lat;lon;timestamp;pressure;altitude;pressure_sealevel;temperature;humidity
56604;BME280;42486;47.478;19.036;2023-09-19T00:19:49;99732.16;;;22.34;73.86
56604;BME280;42486;47.478;19.036;2023-09-19T00:22:57;99732.75;;;22.23;75.19
56604;BME280;42486;47.478;19.036;2023-09-19T00:26:01;99736.44;;;22.22;75.02
56604;BME280;42486;47.478;19.036;2023-09-19T00:29:05;99730.25;;;22.15;75.73
56604;BME280;42486;47.478;19.036;2023-09-19T00:32:16;99721.84;;;22.05;76.53
56604;BME280;42486;47.478;19.036;2023-09-19T00:35:22;99731.25;;;21.94;77.20
56604;BME280;42486;47.478;19.036;2023-09-19T00:38:29;99729.41;;;21.88;77.93
56604;BME280;42486;47.478;19.036;2023-09-19T00:41:34;99726.97;;;21.86;78.09
56604;BME280;42486;47.478;19.036;2023-09-19T00:44:39;99727.53;;;21.75;79.35
56604;BME280;42486;47.478;19.036;2023-09-19T00:47:50;99726.31;;;21.71;79.90
56604;BME280;42486;47.478;19.036;2023-09-19T00:51:03;99730.78;;;21.64;80.79
56604;BME280;42486;47.478;19.036;2023-09-19T00:54:08;99723.00;;;21.55;81.79
56604;BME280;42486;47.478;19.036;2023-09-19T00:57:14;99727.69;;;21.47;82.79
56604;BME280;42486;47.478;19.036;2023-09-19T01:00:26;99730.12;;;21.42;82.83
56604;BME280;42486;47.478;19.036;2023-09-19T01:03:39;99723.12;;;21.41;83.60
56604;BME280;42486;47.478;19.036;2023-09-19T01:06:49;99718.59;;;21.34;83.51
56604;BME280;42486;47.478;19.036;2023-09-19T01:09:57;99722.25;;;21.27;84.11
56604;BME280;42486;47.478;19.036;2023-09-19T01:16:25;99718.13;;;21.18;85.65
56604;BME280;42486;47.478;19.036;2023-09-19T01:29:42;99714.03;;;21.15;86.82
56604;BME280;42486;47.478;19.036;2023-09-19T01:32:52;99722.19;;;21.14;87.32
56604;BME280;42486;47.478;19.036;2023-09-19T01:35:55;99720.16;;;21.16;87.52
56604;BME280;42486;47.478;19.036;2023-09-19T01:39:00;99712.59;;;21.12;87.98
56604;BME280;42486;47.478;19.036;2023-09-19T01:52:14;99704.78;;;21.04;89.79
56604;BME280;42486;47.478;19.036;2023-09-19T01:55:30;99706.56;;;20.97;91.18
56604;BME280;42486;47.478;19.036;2023-09-19T01:58:53;99708.38;;;20.90;91.46
56604;BME280;42486;47.478;19.036;2023-09-19T02:02:01;99704.03;;;20.82;91.89
56604;BME280;42486;47.478;19.036;2023-09-19T02:05:06;99704.19;;;20.74;92.06
56604;BME280;42486;47.478;19.036;2023-09-19T02:08:11;99707.47;;;20.70;92.47
56604;BME280;42486;47.478;19.036;2023-09-19T02:11:21;99706.25;;;20.72;93.20
56604;BME280;42486;47.478;19.036;2023-09-19T02:14:32;99702.16;;;20.70;93.47
56604;BME280;42486;47.478;19.036;2023-09-19T02:17:36;99706.44;;;20.71;94.00
56604;BME280;42486;47.478;19.036;2023-09-19T02:20:49;99709.88;;;20.64;94.54
56604;BME280;42486;47.478;19.036;2023-09-19T02:23:56;99712.91;;;20.61;95.09
56604;BME280;42486;47.478;19.036;2023-09-19T02:26:59;99709.25;;;20.62;95.49
56604;BME280;42486;47.478;19.036;2023-09-19T02:30:06;99694.91;;;20.57;96.14
56604;BME280;42486;47.478;19.036;2023-09-19T02:33:12;99697.75;;;20.55;96.52
56604;BME280;42486;47.478;19.036;2023-09-19T02:36:20;99700.41;;;20.55;96.54
56604;BME280;42486;47.478;19.036;2023-09-19T02:39:28;99702.25;;;20.55;96.26
56604;BME280;42486;47.478;19.036;2023-09-19T02:42:38;99707.91;;;20.52;97.12
56604;BME280;42486;47.478;19.036;2023-09-19T02:45:41;99702.59;;;20.52;97.51
56604;BME280;42486;47.478;19.036;2023-09-19T02:48:44;99705.81;;;20.47;98.17
56604;BME280;42486;47.478;19.036;2023-09-19T02:51:51;99700.62;;;20.32;99.39
56604;BME280;42486;47.478;19.036;2023-09-19T02:54:57;99703.66;;;20.29;99.57
56604;BME280;42486;47.478;19.036;2023-09-19T02:58:09;99695.91;;;20.28;100.00
56604;BME280;42486;47.478;19.036;2023-09-19T03:01:25;99693.56;;;20.18;100.00
56604;BME280;42486;47.478;19.036;2023-09-19T03:04:28;99694.34;;;20.12;100.00
56604;BME280;42486;47.478;19.036;2023-09-19T03:07:32;99684.94;;;20.09;100.00
56604;BME280;42486;47.478;19.036;2023-09-19T03:10:36;99689.28;;;20.17;100.00
56604;BME280;42486;47.478;19.036;2023-09-19T03:13:40;99695.56;;;20.16;100.00
56604;BME280;42486;47.478;19.036;2023-09-19T03:16:46;99700.69;;;20.17;100.00
56604;BME280;42486;47.478;19.036;2023-09-19T03:19:51;99694.75;;;20.15;100.00
56604;BME280;42486;47.478;19.036;2023-09-19T03:22:54;99696.59;;;20.15;100.00
56604;BME280;42486;47.478;19.036;2023-09-19T03:25:58;99695.00;;;20.20;100.00
56604;BME280;42486;47.478;19.036;2023-09-19T03:29:04;99678.69;;;20.23;100.00
56604;BME280;42486;47.478;19.036;2023-09-19T03:32:11;99690.72;;;20.19;100.00
56604;BME280;42486;47.478;19.036;2023-09-19T03:35:17;99685.81;;;20.16;100.00
56604;BME280;42486;47.478;19.036;2023-09-19T03:38:24;99687.81;;;20.14;100.00
56604;BME280;42486;47.478;19.036;2023-09-19T03:41:27;99698.06;;;20.17;100.00
56604;BME280;42486;47.478;19.036;2023-09-19T03:44:32;99700.06;;;20.15;100.00
56604;BME280;42486;47.478;19.036;2023-09-19T03:47:35;99691.94;;;20.17;100.00
56604;BME280;42486;47.478;19.036;2023-09-19T03:50:39;99695.22;;;20.19;100.00
56604;BME280;42486;47.478;19.036;2023-09-19T03:53:42;99689.47;;;20.15;100.00
56604;BME280;42486;47.478;19.036;2023-09-19T03:56:57;99693.69;;;20.10;100.00
56604;BME280;42486;47.478;19.036;2023-09-19T04:00:04;99689.72;;;19.99;100.00
56604;BME280;42486;47.478;19.036;2023-09-19T04:03:16;99707.41;;;19.92;100.00
56604;BME280;42486;47.478;19.036;2023-09-19T04:06:25;99702.56;;;19.95;100.00
56604;BME280;42486;47.478;19.036;2023-09-19T04:09:43;99705.25;;;20.02;100.00
56604;BME280;42486;47.478;19.036;2023-09-19T04:12:54;99714.22;;;20.01;100.00
56604;BME280;42486;47.478;19.036;2023-09-19T04:15:59;99704.44;;;20.01;100.00
56604;BME280;42486;47.478;19.036;2023-09-19T04:19:02;99711.19;;;20.04;100.00
56604;BME280;42486;47.478;19.036;2023-09-19T04:22:06;99715.56;;;20.12;100.00
56604;BME280;42486;47.478;19.036;2023-09-19T04:25:12;99718.06;;;20.20;100.00
56604;BME280;42486;47.478;19.036;2023-09-19T04:28:16;99723.00;;;20.23;100.00
56604;BME280;42486;47.478;19.036;2023-09-19T04:31:27;99721.78;;;20.26;100.00
56604;BME280;42486;47.478;19.036;2023-09-19T04:34:31;99714.03;;;20.24;100.00
56604;BME280;42486;47.478;19.036;2023-09-19T04:37:38;99733.59;;;20.23;100.00
56604;BME280;42486;47.478;19.036;2023-09-19T04:40:43;99734.06;;;20.27;100.00
56604;BME280;42486;47.478;19.036;2023-09-19T04:43:50;99739.78;;;20.30;100.00
56604;BME280;42486;47.478;19.036;2023-09-19T04:46:55;99741.03;;;20.34;100.00
56604;BME280;42486;47.478;19.036;2023-09-19T04:50:13;99748.25;;;20.40;100.00
56604;BME280;42486;47.478;19.036;2023-09-19T04:56:54;99751.53;;;20.64;99.39
56604;BME280;42486;47.478;19.036;2023-09-19T04:59:59;99758.94;;;20.75;94.58
56604;BME280;42486;47.478;19.036;2023-09-19T05:03:10;99771.59;;;20.73;94.75
56604;BME280;42486;47.478;19.036;2023-09-19T05:06:14;99756.00;;;20.63;95.20
56604;BME280;42486;47.478;19.036;2023-09-19T05:09:17;99768.50;;;20.70;95.41
56604;BME280;42486;47.478;19.036;2023-09-19T05:12:26;99779.13;;;20.70;95.18
56604;BME280;42486;47.478;19.036;2023-09-19T05:15:30;99772.28;;;20.54;96.00
56604;BME280;42486;47.478;19.036;2023-09-19T05:18:43;99777.31;;;20.49;96.92
56604;BME280;42486;47.478;19.036;2023-09-19T05:21:47;99788.56;;;20.51;96.34
56604;BME280;42486;47.478;19.036;2023-09-19T05:24:51;99794.19;;;20.41;96.54
56604;BME280;42486;47.478;19.036;2023-09-19T05:27:59;99797.91;;;20.46;96.71
56604;BME280;42486;47.478;19.036;2023-09-19T05:31:03;99802.41;;;20.24;96.73
56604;BME280;42486;47.478;19.036;2023-09-19T05:34:09;99803.47;;;20.30;96.93
56604;BME280;42486;47.478;19.036;2023-09-19T05:37:14;99808.13;;;20.28;97.06
56604;BME280;42486;47.478;19.036;2023-09-19T05:40:19;99796.38;;;20.16;98.06
56604;BME280;42486;47.478;19.036;2023-09-19T05:43:22;99796.31;;;20.09;97.53
56604;BME280;42486;47.478;19.036;2023-09-19T05:46:28;99797.50;;;20.07;98.78
56604;BME280;42486;47.478;19.036;2023-09-19T05:49:38;99784.78;;;20.17;97.37
56604;BME280;42486;47.478;19.036;2023-09-19T05:52:55;99788.25;;;20.17;97.11
56604;BME280;42486;47.478;19.036;2023-09-19T05:56:09;99809.75;;;20.08;98.47
56604;BME280;42486;47.478;19.036;2023-09-19T05:59:19;99804.84;;;20.05;98.07
56604;BME280;42486;47.478;19.036;2023-09-19T06:02:24;99818.91;;;20.05;98.31
56604;BME280;42486;47.478;19.036;2023-09-19T06:05:31;99806.78;;;19.96;98.43
56604;BME280;42486;47.478;19.036;2023-09-19T06:08:43;99808.50;;;20.04;98.23
56604;BME280;42486;47.478;19.036;2023-09-19T06:33:06;99830.12;;;19.56;100.00
56604;BME280;42486;47.478;19.036;2023-09-19T06:36:11;99834.81;;;19.39;100.00
56604;BME280;42486;47.478;19.036;2023-09-19T06:39:16;99835.00;;;19.37;100.00
56604;BME280;42486;47.478;19.036;2023-09-19T06:42:23;99831.50;;;19.52;100.00
56604;BME280;42486;47.478;19.036;2023-09-19T06:45:29;99839.66;;;19.50;100.00
56604;BME280;42486;47.478;19.036;2023-09-19T06:52:28;99836.53;;;19.17;100.00
56604;BME280;42486;47.478;19.036;2023-09-19T06:55:34;99839.44;;;19.22;100.00
56604;BME280;42486;47.478;19.036;2023-09-19T06:58:47;99845.12;;;19.19;100.00
56604;BME280;42486;47.478;19.036;2023-09-19T07:02:07;99854.34;;;19.23;100.00
56604;BME280;42486;47.478;19.036;2023-09-19T07:05:13;99872.88;;;19.08;100.00
56604;BME280;42486;47.478;19.036;2023-09-19T07:08:19;99875.28;;;18.80;100.00
56604;BME280;42486;47.478;19.036;2023-09-19T07:11:35;99868.69;;;18.76;100.00
56604;BME280;42486;47.478;19.036;2023-09-19T07:14:45;99872.44;;;18.82;100.00
56604;BME280;42486;47.478;19.036;2023-09-19T07:17:50;99886.19;;;19.00;100.00
56604;BME280;42486;47.478;19.036;2023-09-19T07:21:07;99890.97;;;19.20;100.00
56604;BME280;42486;47.478;19.036;2023-09-19T07:24:10;99894.91;;;19.24;100.00
56604;BME280;42486;47.478;19.036;2023-09-19T07:27:13;99904.31;;;19.26;100.00
56604;BME280;42486;47.478;19.036;2023-09-19T07:30:19;99894.69;;;19.10;100.00
56604;BME280;42486;47.478;19.036;2023-09-19T07:33:30;99903.16;;;18.91;100.00
56604;BME280;42486;47.478;19.036;2023-09-19T07:36:36;99901.47;;;18.75;100.00
56604;BME280;42486;47.478;19.036;2023-09-19T07:39:40;99889.38;;;18.73;100.00
56604;BME280;42486;47.478;19.036;2023-09-19T07:42:58;99906.75;;;18.75;100.00
56604;BME280;42486;47.478;19.036;2023-09-19T07:46:08;99912.41;;;18.41;100.00
56604;BME280;42486;47.478;19.036;2023-09-19T07:49:20;99914.66;;;18.21;100.00
56604;BME280;42486;47.478;19.036;2023-09-19T07:52:28;99923.19;;;17.92;100.00
56604;BME280;42486;47.478;19.036;2023-09-19T07:55:34;99930.84;;;17.70;100.00
56604;BME280;42486;47.478;19.036;2023-09-19T07:58:39;99925.28;;;17.49;100.00
56604;BME280;42486;47.478;19.036;2023-09-19T08:01:43;99942.75;;;17.50;100.00
56604;BME280;42486;47.478;19.036;2023-09-19T08:04:49;99941.13;;;17.49;100.00
56604;BME280;42486;47.478;19.036;2023-09-19T08:08:01;99940.44;;;17.55;100.00
56604;BME280;42486;47.478;19.036;2023-09-19T08:11:08;99948.34;;;17.63;100.00
56604;BME280;42486;47.478;19.036;2023-09-19T08:14:27;99950.16;;;17.71;100.00
56604;BME280;42486;47.478;19.036;2023-09-19T08:17:35;99964.50;;;17.76;100.00
56604;BME280;42486;47.478;19.036;2023-09-19T08:20:41;99976.78;;;17.61;100.00
56604;BME280;42486;47.478;19.036;2023-09-19T08:23:55;99971.84;;;17.58;100.00
56604;BME280;42486;47.478;19.036;2023-09-19T08:27:07;99973.62;;;17.57;100.00
56604;BME280;42486;47.478;19.036;2023-09-19T08:30:17;99973.13;;;17.70;100.00
56604;BME280;42486;47.478;19.036;2023-09-19T08:33:46;99977.09;;;17.74;100.00
56604;BME280;42486;47.478;19.036;2023-09-19T08:36:56;99980.72;;;17.81;100.00
56604;BME280;42486;47.478;19.036;2023-09-19T08:39:59;99986.50;;;17.85;100.00
56604;BME280;42486;47.478;19.036;2023-09-19T08:43:03;99998.72;;;17.86;100.00
56604;BME280;42486;47.478;19.036;2023-09-19T08:46:20;100012.88;;;18.01;100.00
56604;BME280;42486;47.478;19.036;2023-09-19T08:50:10;100021.88;;;18.32;100.00
56604;BME280;42486;47.478;19.036;2023-09-19T08:57:29;100047.66;;;18.38;100.00
56604;BME280;42486;47.478;19.036;2023-09-19T09:01:08;100045.84;;;18.30;100.00
56604;BME280;42486;47.478;19.036;2023-09-19T09:04:14;100058.63;;;18.10;100.00
56604;BME280;42486;47.478;19.036;2023-09-19T09:07:19;100052.38;;;17.78;100.00
56604;BME280;42486;47.478;19.036;2023-09-19T09:10:23;100051.56;;;17.78;100.00
56604;BME280;42486;47.478;19.036;2023-09-19T09:13:29;100038.22;;;17.79;100.00
56604;BME280;42486;47.478;19.036;2023-09-19T09:16:39;100028.94;;;17.92;100.00
56604;BME280;42486;47.478;19.036;2023-09-19T09:19:53;99997.06;;;17.77;100.00
56604;BME280;42486;47.478;19.036;2023-09-19T09:23:18;99991.09;;;17.91;100.00
56604;BME280;42486;47.478;19.036;2023-09-19T09:52:58;100008.81;;;18.61;100.00
56604;BME280;42486;47.478;19.036;2023-09-19T09:56:09;100016.72;;;18.69;100.00
56604;BME280;42486;47.478;19.036;2023-09-19T09:59:15;100012.94;;;18.64;100.00
56604;BME280;42486;47.478;19.036;2023-09-19T10:02:21;100015.34;;;18.51;100.00
56604;BME280;42486;47.478;19.036;2023-09-19T10:05:28;99999.22;;;18.29;100.00
56604;BME280;42486;47.478;19.036;2023-09-19T10:08:37;100005.88;;;18.25;100.00
56604;BME280;42486;47.478;19.036;2023-09-19T10:12:03;100006.50;;;18.35;100.00
56604;BME280;42486;47.478;19.036;2023-09-19T10:15:08;100003.81;;;18.75;100.00
56604;BME280;42486;47.478;19.036;2023-09-19T10:18:14;100012.03;;;19.11;100.00
56604;BME280;42486;47.478;19.036;2023-09-19T10:21:20;100018.09;;;19.20;100.00
56604;BME280;42486;47.478;19.036;2023-09-19T10:24:25;100019.03;;;19.27;100.00
56604;BME280;42486;47.478;19.036;2023-09-19T10:27:29;100016.75;;;19.62;100.00
56604;BME280;42486;47.478;19.036;2023-09-19T10:30:50;100029.25;;;19.91;100.00
56604;BME280;42486;47.478;19.036;2023-09-19T10:33:55;100033.56;;;20.21;100.00
56604;BME280;42486;47.478;19.036;2023-09-19T10:36:58;100041.22;;;20.31;100.00
56604;BME280;42486;47.478;19.036;2023-09-19T10:40:06;100043.50;;;20.34;100.00
56604;BME280;42486;47.478;19.036;2023-09-19T10:43:19;100035.44;;;20.42;100.00
56604;BME280;42486;47.478;19.036;2023-09-19T10:46:25;100033.72;;;20.50;100.00
56604;BME280;42486;47.478;19.036;2023-09-19T10:49:30;100034.25;;;20.45;100.00
56604;BME280;42486;47.478;19.036;2023-09-19T10:52:40;100045.91;;;20.59;100.00
56604;BME280;42486;47.478;19.036;2023-09-19T10:55:56;100042.41;;;20.58;100.00
56604;BME280;42486;47.478;19.036;2023-09-19T10:59:09;100050.97;;;20.54;100.00
56604;BME280;42486;47.478;19.036;2023-09-19T11:02:17;100056.06;;;20.55;100.00
56604;BME280;42486;47.478;19.036;2023-09-19T11:05:22;100057.72;;;20.56;100.00
56604;BME280;42486;47.478;19.036;2023-09-19T11:08:50;100062.34;;;20.69;100.00
56604;BME280;42486;47.478;19.036;2023-09-19T11:11:58;100067.13;;;20.74;100.00
56604;BME280;42486;47.478;19.036;2023-09-19T11:15:03;100079.62;;;20.95;100.00
56604;BME280;42486;47.478;19.036;2023-09-19T11:21:55;100075.19;;;21.60;100.00
56604;BME280;42486;47.478;19.036;2023-09-19T11:26:10;100071.66;;;22.09;100.00
56604;BME280;42486;47.478;19.036;2023-09-19T11:28:46;100070.87;;;22.50;98.81
56604;BME280;42486;47.478;19.036;2023-09-19T11:31:52;100067.91;;;22.66;95.55
56604;BME280;42486;47.478;19.036;2023-09-19T11:35:07;100065.66;;;22.76;89.69
56604;BME280;42486;47.478;19.036;2023-09-19T11:38:14;100065.38;;;22.58;82.29
56604;BME280;42486;47.478;19.036;2023-09-19T11:41:45;100071.03;;;22.83;84.12
56604;BME280;42486;47.478;19.036;2023-09-19T11:49:10;100059.62;;;22.54;80.29
56604;BME280;42486;47.478;19.036;2023-09-19T11:52:22;100052.34;;;22.28;83.02
56604;BME280;42486;47.478;19.036;2023-09-19T11:55:31;100049.66;;;22.22;85.29
56604;BME280;42486;47.478;19.036;2023-09-19T11:58:38;100051.72;;;22.68;80.22
56604;BME280;42486;47.478;19.036;2023-09-19T12:01:51;100044.03;;;22.99;80.70
56604;BME280;42486;47.478;19.036;2023-09-19T12:05:00;100042.88;;;23.42;77.90
56604;BME280;42486;47.478;19.036;2023-09-19T12:08:09;100040.41;;;23.60;76.81
56604;BME280;42486;47.478;19.036;2023-09-19T12:11:13;100047.37;;;23.68;77.85
56604;BME280;42486;47.478;19.036;2023-09-19T12:14:23;100042.06;;;23.68;75.24
56604;BME280;42486;47.478;19.036;2023-09-19T12:17:40;100042.88;;;23.55;73.73
56604;BME280;42486;47.478;19.036;2023-09-19T12:20:45;100041.63;;;23.31;76.63
56604;BME280;42486;47.478;19.036;2023-09-19T12:24:27;100048.59;;;23.19;76.16
56604;BME280;42486;47.478;19.036;2023-09-19T12:27:42;100046.12;;;23.24;76.19
56604;BME280;42486;47.478;19.036;2023-09-19T12:30:45;100048.62;;;23.39;73.78
56604;BME280;42486;47.478;19.036;2023-09-19T12:33:57;100062.59;;;23.87;75.26
56604;BME280;42486;47.478;19.036;2023-09-19T12:37:07;100066.91;;;23.88;73.38
56604;BME280;42486;47.478;19.036;2023-09-19T12:40:41;100069.34;;;23.63;72.35
56604;BME280;42486;47.478;19.036;2023-09-19T12:43:45;100062.16;;;23.44;73.25
56604;BME280;42486;47.478;19.036;2023-09-19T12:46:48;100068.94;;;23.60;73.63
56604;BME280;42486;47.478;19.036;2023-09-19T12:50:11;100076.53;;;24.03;72.68
56604;BME280;42486;47.478;19.036;2023-09-19T12:53:33;100073.19;;;24.27;71.36
56604;BME280;42486;47.478;19.036;2023-09-19T12:56:43;100073.00;;;24.29;70.94
56604;BME280;42486;47.478;19.036;2023-09-19T12:59:53;100070.16;;;24.10;72.61
56604;BME280;42486;47.478;19.036;2023-09-19T13:03:15;100073.03;;;24.15;69.68
56604;BME280;42486;47.478;19.036;2023-09-19T13:06:36;100075.72;;;23.95;70.44
56604;BME280;42486;47.478;19.036;2023-09-19T13:10:02;100073.03;;;23.62;71.98
56604;BME280;42486;47.478;19.036;2023-09-19T13:13:27;100065.25;;;23.87;70.72
56604;BME280;42486;47.478;19.036;2023-09-19T13:16:33;100067.06;;;23.67;71.30
56604;BME280;42486;47.478;19.036;2023-09-19T13:19:59;100063.81;;;23.85;71.12
56604;BME280;42486;47.478;19.036;2023-09-19T13:23:05;100067.69;;;23.95;69.79
56604;BME280;42486;47.478;19.036;2023-09-19T13:26:13;100074.03;;;24.14;69.19
56604;BME280;42486;47.478;19.036;2023-09-19T13:29:17;100077.47;;;24.35;69.51
56604;BME280;42486;47.478;19.036;2023-09-19T13:32:23;100073.81;;;24.29;69.03
56604;BME280;42486;47.478;19.036;2023-09-19T13:35:25;100077.47;;;24.35;66.81
56604;BME280;42486;47.478;19.036;2023-09-19T13:38:32;100068.06;;;24.19;65.75
56604;BME280;42486;47.478;19.036;2023-09-19T13:41:37;100077.50;;;24.28;68.73
56604;BME280;42486;47.478;19.036;2023-09-19T13:44:41;100087.78;;;24.31;66.83
56604;BME280;42486;47.478;19.036;2023-09-19T13:47:47;100091.87;;;24.47;66.46
56604;BME280;42486;47.478;19.036;2023-09-19T13:50:55;100099.06;;;24.27;64.67
56604;BME280;42486;47.478;19.036;2023-09-19T13:54:00;100098.91;;;23.95;65.66
56604;BME280;42486;47.478;19.036;2023-09-19T13:57:17;100089.47;;;23.99;66.03
56604;BME280;42486;47.478;19.036;2023-09-19T14:03:47;100095.00;;;24.04;64.95
56604;BME280;42486;47.478;19.036;2023-09-19T14:10:15;100098.09;;;24.08;66.37
56604;BME280;42486;47.478;19.036;2023-09-19T14:13:22;100103.44;;;23.94;65.50
56604;BME280;42486;47.478;19.036;2023-09-19T14:16:24;100103.84;;;23.85;66.81
56604;BME280;42486;47.478;19.036;2023-09-19T14:19:48;100103.00;;;23.64;68.13
56604;BME280;42486;47.478;19.036;2023-09-19T14:22:50;100092.69;;;23.35;69.17
56604;BME280;42486;47.478;19.036;2023-09-19T14:25:53;100097.22;;;23.47;68.35
56604;BME280;42486;47.478;19.036;2023-09-19T14:28:57;100090.03;;;23.48;71.27
56604;BME280;42486;47.478;19.036;2023-09-19T14:32:02;100093.34;;;23.57;69.34
56604;BME280;42486;47.478;19.036;2023-09-19T14:35:07;100085.97;;;23.52;69.67
56604;BME280;42486;47.478;19.036;2023-09-19T14:38:18;100091.31;;;23.65;68.89
56604;BME280;42486;47.478;19.036;2023-09-19T14:41:21;100087.38;;;23.61;68.13
56604;BME280;42486;47.478;19.036;2023-09-19T14:44:26;100078.97;;;23.71;68.39
56604;BME280;42486;47.478;19.036;2023-09-19T14:47:31;100085.75;;;23.53;68.46
56604;BME280;42486;47.478;19.036;2023-09-19T14:50:38;100089.81;;;23.23;69.69
56604;BME280;42486;47.478;19.036;2023-09-19T14:53:42;100090.25;;;23.46;70.34
56604;BME280;42486;47.478;19.036;2023-09-19T14:56:45;100089.44;;;23.52;70.18
56604;BME280;42486;47.478;19.036;2023-09-19T14:59:57;100089.47;;;23.59;69.18
56604;BME280;42486;47.478;19.036;2023-09-19T15:03:01;100096.81;;;23.64;68.68
56604;BME280;42486;47.478;19.036;2023-09-19T15:06:10;100087.38;;;23.61;67.02
56604;BME280;42486;47.478;19.036;2023-09-19T15:09:18;100095.63;;;23.60;67.69
56604;BME280;42486;47.478;19.036;2023-09-19T15:12:22;100095.19;;;23.49;67.58
56604;BME280;42486;47.478;19.036;2023-09-19T15:15:25;100096.81;;;23.44;66.20
56604;BME280;42486;47.478;19.036;2023-09-19T15:18:32;100107.69;;;23.36;66.20
56604;BME280;42486;47.478;19.036;2023-09-19T15:21:37;100109.69;;;23.20;66.90
56604;BME280;42486;47.478;19.036;2023-09-19T15:24:40;100107.00;;;23.07;68.34
56604;BME280;42486;47.478;19.036;2023-09-19T15:27:45;100107.63;;;23.16;67.92
56604;BME280;42486;47.478;19.036;2023-09-19T15:30:59;100110.69;;;23.06;67.66
56604;BME280;42486;47.478;19.036;2023-09-19T15:34:10;100113.50;;;22.98;68.02
56604;BME280;42486;47.478;19.036;2023-09-19T15:37:17;100118.28;;;23.09;68.17
56604;BME280;42486;47.478;19.036;2023-09-19T15:40:23;100128.00;;;22.89;67.31
56604;BME280;42486;47.478;19.036;2023-09-19T15:43:30;100127.38;;;22.80;67.97
56604;BME280;42486;47.478;19.036;2023-09-19T15:46:36;100124.25;;;22.70;67.63
56604;BME280;42486;47.478;19.036;2023-09-19T15:49:40;100133.28;;;22.69;68.02
56604;BME280;42486;47.478;19.036;2023-09-19T15:52:46;100143.06;;;22.61;68.65
56604;BME280;42486;47.478;19.036;2023-09-19T15:55:55;100130.09;;;22.52;69.17
56604;BME280;42486;47.478;19.036;2023-09-19T15:59:04;100128.16;;;22.39;70.14
56604;BME280;42486;47.478;19.036;2023-09-19T16:02:10;100131.78;;;22.25;70.41
56604;BME280;42486;47.478;19.036;2023-09-19T16:05:19;100127.66;;;22.22;71.07
56604;BME280;42486;47.478;19.036;2023-09-19T16:08:23;100128.41;;;22.16;72.21
56604;BME280;42486;47.478;19.036;2023-09-19T16:11:28;100134.56;;;22.16;72.65
56604;BME280;42486;47.478;19.036;2023-09-19T16:14:32;100137.50;;;22.00;74.26
56604;BME280;42486;47.478;19.036;2023-09-19T16:17:37;100139.09;;;21.94;74.85
56604;BME280;42486;47.478;19.036;2023-09-19T16:20:41;100137.78;;;21.84;75.57
56604;BME280;42486;47.478;19.036;2023-09-19T16:23:46;100140.59;;;21.75;78.15
56604;BME280;42486;47.478;19.036;2023-09-19T16:26:49;100132.34;;;21.70;78.87
56604;BME280;42486;47.478;19.036;2023-09-19T16:29:54;100133.78;;;21.51;80.04
56604;BME280;42486;47.478;19.036;2023-09-19T16:32:57;100133.31;;;21.41;80.92
56604;BME280;42486;47.478;19.036;2023-09-19T16:36:14;100130.25;;;21.29;82.28
56604;BME280;42486;47.478;19.036;2023-09-19T16:39:56;100140.38;;;21.19;84.63
56604;BME280;42486;47.478;19.036;2023-09-19T16:44:11;100136.69;;;20.99;85.10
56604;BME280;42486;47.478;19.036;2023-09-19T19:04:02;100241.53;;;17.89;100.00
56604;BME280;42486;47.478;19.036;2023-09-19T19:07:07;100242.88;;;17.93;100.00
56604;BME280;42486;47.478;19.036;2023-09-19T19:10:14;100244.69;;;17.93;100.00
56604;BME280;42486;47.478;19.036;2023-09-19T19:13:21;100250.81;;;17.93;100.00
56604;BME280;42486;47.478;19.036;2023-09-19T19:16:24;100257.25;;;17.91;100.00
56604;BME280;42486;47.478;19.036;2023-09-19T19:19:29;100254.13;;;17.95;100.00
56604;BME280;42486;47.478;19.036;2023-09-19T19:22:32;100259.41;;;17.95;100.00
56604;BME280;42486;47.478;19.036;2023-09-19T19:25:36;100262.06;;;17.95;100.00
56604;BME280;42486;47.478;19.036;2023-09-19T19:28:40;100258.50;;;17.78;100.00
56604;BME280;42486;47.478;19.036;2023-09-19T19:31:45;100258.13;;;17.65;100.00
56604;BME280;42486;47.478;19.036;2023-09-19T19:34:49;100262.59;;;17.65;100.00
56604;BME280;42486;47.478;19.036;2023-09-19T19:37:52;100265.13;;;17.74;100.00
56604;BME280;42486;47.478;19.036;2023-09-19T19:41:00;100270.53;;;17.65;100.00
56604;BME280;42486;47.478;19.036;2023-09-19T19:44:04;100261.59;;;17.57;100.00
56604;BME280;42486;47.478;19.036;2023-09-19T19:47:07;100256.97;;;17.59;100.00
56604;BME280;42486;47.478;19.036;2023-09-19T19:50:11;100262.56;;;17.48;100.00
56604;BME280;42486;47.478;19.036;2023-09-19T19:53:14;100262.56;;;17.48;100.00
56604;BME280;42486;47.478;19.036;2023-09-19T19:56:17;100274.94;;;17.48;100.00
56604;BME280;42486;47.478;19.036;2023-09-19T19:59:23;100275.66;;;17.58;100.00
56604;BME280;42486;47.478;19.036;2023-09-19T20:02:27;100278.75;;;17.53;100.00
56604;BME280;42486;47.478;19.036;2023-09-19T20:05:32;100278.56;;;17.47;100.00
56604;BME280;42486;47.478;19.036;2023-09-19T20:08:39;100282.62;;;17.33;100.00
56604;BME280;42486;47.478;19.036;2023-09-19T20:11:42;100267.78;;;17.32;100.00
56604;BME280;42486;47.478;19.036;2023-09-19T20:14:47;100277.81;;;17.28;100.00
56604;BME280;42486;47.478;19.036;2023-09-19T20:17:52;100278.13;;;17.25;100.00
56604;BME280;42486;47.478;19.036;2023-09-19T20:21:10;100282.69;;;17.15;100.00
56604;BME280;42486;47.478;19.036;2023-09-19T20:24:20;100284.97;;;17.10;100.00
56604;BME280;42486;47.478;19.036;2023-09-19T20:27:26;100284.66;;;17.05;100.00